createdAt,value
2019-02-07T00:01:23.689Z,6.62
2019-02-07T00:03:53.317Z,6.59
2019-02-07T00:06:22.936Z,6.53
2019-02-07T00:08:52.718Z,6.52
2019-02-07T00:11:22.307Z,6.56
2019-02-07T00:13:51.940Z,6.47
2019-02-07T00:16:22.067Z,6.59
2019-02-07T00:18:51.543Z,6.47
2019-02-07T00:21:21.125Z,6.68
2019-02-07T00:23:50.747Z,6.77
2019-02-07T00:26:20.303Z,6.78
2019-02-07T00:28:49.891Z,6.60
2019-02-07T00:31:19.959Z,6.59
2019-02-07T00:34:08.797Z,6.64
2019-02-07T00:36:38.283Z,6.60
2019-02-07T00:39:09.414Z,6.64
2019-02-07T00:41:39.466Z,6.63
2019-02-07T00:44:09.029Z,6.72
2019-02-07T00:46:38.544Z,6.47
2019-02-07T00:49:08.095Z,6.24
2019-02-07T00:51:37.607Z,5.89
2019-02-07T00:54:07.182Z,6.15
2019-02-07T00:56:39.742Z,5.92
2019-02-07T00:59:08.339Z,5.75
2019-02-07T01:01:37.901Z,5.65
2019-02-07T01:04:07.519Z,5.63
2019-02-07T01:06:37.041Z,5.43
2019-02-07T01:09:08.328Z,5.17
2019-02-07T01:11:37.825Z,4.98
2019-02-07T01:14:07.384Z,5.07
2019-02-07T01:16:36.945Z,5.01
2019-02-07T01:19:06.589Z,4.91
2019-02-07T01:21:36.074Z,4.79
2019-02-07T01:24:06.786Z,4.77
2019-02-07T01:26:36.266Z,4.68
2019-02-07T01:29:06.098Z,4.73
2019-02-07T01:31:35.722Z,4.71
2019-02-07T01:34:05.344Z,4.91
2019-02-07T01:36:34.859Z,4.63
2019-02-07T01:39:07.392Z,4.59
2019-02-07T01:41:37.050Z,4.68
2019-02-07T01:44:06.533Z,4.66
2019-02-07T01:46:36.174Z,4.69
2019-02-07T01:49:05.813Z,4.43
2019-02-07T01:51:35.384Z,4.43
2019-02-07T01:54:05.169Z,4.38
2019-02-07T01:56:34.822Z,4.39
2019-02-07T01:59:04.394Z,4.35
2019-02-07T02:01:33.896Z,4.27
2019-02-07T02:04:03.402Z,4.22
2019-02-07T02:06:32.960Z,4.26
2019-02-07T02:09:02.618Z,4.08
2019-02-07T02:11:32.233Z,4.11
2019-02-07T02:14:01.795Z,4.09
2019-02-07T02:16:31.368Z,4.16
2019-02-07T02:19:00.911Z,4.25
2019-02-07T02:21:30.767Z,4.16
2019-02-07T02:24:00.262Z,4.11
2019-02-07T02:26:29.951Z,4.04
2019-02-07T02:28:59.435Z,4.10
2019-02-07T02:31:29.006Z,4.07
2019-02-07T02:33:58.552Z,3.99
2019-02-07T02:36:28.499Z,4.07
2019-02-07T02:38:57.982Z,4.07
2019-02-07T02:41:27.528Z,4.21
2019-02-07T02:43:57.088Z,4.11
2019-02-07T02:46:26.636Z,4.05
2019-02-07T02:48:56.127Z,4.06
2019-02-07T02:51:26.094Z,4.10
2019-02-07T02:53:57.732Z,4.15
2019-02-07T02:56:27.217Z,4.13
2019-02-07T02:58:56.787Z,4.16
2019-02-07T03:01:33.719Z,4.07
2019-02-07T03:04:05.316Z,4.10
2019-02-07T03:06:36.573Z,4.00
2019-02-07T03:09:12.758Z,4.13
2019-02-07T03:11:58.946Z,4.08
2019-02-07T03:14:32.819Z,4.02
2019-02-07T03:17:16.268Z,4.00
2019-02-07T03:19:56.157Z,4.24
2019-02-07T03:22:33.445Z,4.15
2019-02-07T03:25:19.883Z,4.02
2019-02-07T03:28:07.144Z,4.01
2019-02-07T03:30:39.066Z,4.12
2019-02-07T03:33:10.192Z,4.35
2019-02-07T03:35:45.487Z,4.10
2019-02-07T03:38:22.346Z,4.20
2019-02-07T03:40:56.106Z,4.28
2019-02-07T03:43:36.038Z,4.35
2019-02-07T03:46:07.666Z,4.53
2019-02-07T03:48:53.927Z,4.39
2019-02-07T03:51:27.901Z,4.33
2019-02-07T03:54:00.256Z,4.24
2019-02-07T03:56:32.228Z,4.39
2019-02-07T03:59:09.142Z,4.51
2019-02-07T04:01:56.086Z,4.52
2019-02-07T04:04:33.345Z,4.51
2019-02-07T04:07:05.369Z,4.48
2019-02-07T04:09:34.692Z,4.66
2019-02-07T04:12:09.930Z,4.58
2019-02-07T04:14:48.292Z,4.62
2019-02-07T04:17:22.101Z,4.59
2019-02-07T04:20:09.673Z,4.71
2019-02-07T04:22:49.642Z,4.72
2019-02-07T04:25:18.929Z,4.64
2019-02-07T04:28:06.351Z,4.72
2019-02-07T04:30:37.606Z,4.63
2019-02-07T04:33:24.968Z,4.66
2019-02-07T04:36:12.465Z,4.85
2019-02-07T04:38:46.454Z,4.84
2019-02-07T04:41:17.618Z,4.82
2019-02-07T04:43:52.393Z,4.82
2019-02-07T04:46:37.225Z,5.07
2019-02-07T04:49:08.376Z,4.91
2019-02-07T04:51:41.931Z,5.17
2019-02-07T04:54:31.239Z,5.00
2019-02-07T04:57:06.239Z,4.92
2019-02-07T04:59:49.253Z,4.96
2019-02-07T05:02:23.395Z,5.23
2019-02-07T05:04:57.595Z,5.12
2019-02-07T05:07:28.734Z,5.10
2019-02-07T05:10:03.019Z,4.80
2019-02-07T05:12:49.517Z,4.92
2019-02-07T05:15:27.892Z,4.99
2019-02-07T05:18:10.751Z,5.18
2019-02-07T05:20:40.314Z,5.05
2019-02-07T05:23:09.652Z,5.12
2019-02-07T05:25:56.837Z,5.16
2019-02-07T05:28:46.235Z,5.24
2019-02-07T05:31:17.734Z,5.25
2019-02-07T05:34:04.655Z,5.19
2019-02-07T05:36:53.689Z,5.42
2019-02-07T05:39:27.910Z,5.31
2019-02-07T05:42:01.572Z,5.41
2019-02-07T05:44:35.486Z,5.44
2019-02-07T05:47:12.907Z,5.35
2019-02-07T05:49:49.791Z,5.47
2019-02-07T05:52:35.894Z,5.58
2019-02-07T05:55:07.563Z,5.49
2019-02-07T05:57:38.780Z,5.66
2019-02-07T06:00:25.920Z,5.64
2019-02-07T06:03:01.177Z,5.71
2019-02-07T06:05:33.439Z,5.73
2019-02-07T06:08:10.319Z,5.83
2019-02-07T06:10:53.582Z,5.69
2019-02-07T06:13:24.724Z,5.82
2019-02-07T06:16:12.196Z,5.93
2019-02-07T06:19:01.522Z,5.93
2019-02-07T06:21:39.899Z,6.01
2019-02-07T06:24:11.039Z,6.08
2019-02-07T06:26:42.258Z,6.01
2019-02-07T06:29:19.175Z,6.19
2019-02-07T06:31:50.361Z,6.32
2019-02-07T06:34:38.076Z,6.18
2019-02-07T06:37:09.293Z,6.26
2019-02-07T06:39:43.190Z,6.37
2019-02-07T06:42:30.956Z,6.54
2019-02-07T06:45:06.238Z,6.44
2019-02-07T06:47:53.889Z,6.34
2019-02-07T06:50:23.202Z,6.46
2019-02-07T06:53:03.402Z,6.56
2019-02-07T06:55:49.251Z,6.47
2019-02-07T06:58:23.733Z,6.58
2019-02-07T07:00:53.070Z,6.54
2019-02-07T07:03:27.018Z,6.68
2019-02-07T07:06:06.951Z,6.76
2019-02-07T07:08:47.343Z,6.52
2019-02-07T07:11:18.466Z,6.52
2019-02-07T07:13:49.672Z,6.48
2019-02-07T07:16:28.035Z,6.36
2019-02-07T07:19:14.268Z,6.53
2019-02-07T07:21:52.483Z,6.45
2019-02-07T07:24:39.932Z,6.50
2019-02-07T07:27:12.181Z,6.52
2019-02-07T07:29:53.558Z,6.67
2019-02-07T07:32:27.866Z,6.73
2019-02-07T07:35:14.433Z,6.70
2019-02-07T07:37:43.778Z,6.83
2019-02-07T07:40:32.200Z,6.93
2019-02-07T07:43:03.349Z,6.95
2019-02-07T07:45:50.583Z,7.04
2019-02-07T07:48:22.583Z,7.23
2019-02-07T07:51:04.230Z,7.14
2019-02-07T07:53:38.013Z,7.26
2019-02-07T07:56:09.219Z,7.41
2019-02-07T07:58:55.229Z,7.24
2019-02-07T08:01:36.817Z,7.43
2019-02-07T08:04:08.525Z,7.42
2019-02-07T08:06:42.441Z,7.43
2019-02-07T08:09:30.324Z,7.61
2019-02-07T08:12:10.322Z,7.46
2019-02-07T08:14:51.617Z,7.56
2019-02-07T08:17:23.098Z,7.55
2019-02-07T08:19:54.283Z,7.68
2019-02-07T08:22:41.458Z,7.65
2019-02-07T08:25:23.707Z,7.64
2019-02-07T08:27:55.011Z,7.70
2019-02-07T08:30:36.216Z,7.67
2019-02-07T08:33:13.952Z,7.89
2019-02-07T08:35:45.430Z,7.91
2019-02-07T08:38:17.540Z,7.84
2019-02-07T08:40:54.751Z,7.97
2019-02-07T08:43:25.889Z,8.01
2019-02-07T08:46:13.376Z,7.98
2019-02-07T08:49:03.085Z,7.87
2019-02-07T08:51:50.469Z,7.86
2019-02-07T08:54:38.003Z,8.08
2019-02-07T08:57:09.227Z,8.03
2019-02-07T08:59:40.451Z,7.86
2019-02-07T09:02:21.208Z,7.95
2019-02-07T09:05:08.714Z,8.29
2019-02-07T09:07:39.870Z,8.22
2019-02-07T09:10:31.823Z,8.31
2019-02-07T09:13:11.870Z,8.36
2019-02-07T09:15:43.915Z,8.48
2019-02-07T09:18:15.927Z,8.82
2019-02-07T09:21:00.559Z,8.84
2019-02-07T09:23:44.913Z,9.02
2019-02-07T09:26:14.361Z,9.05
2019-02-07T09:28:45.501Z,9.20
2019-02-07T09:31:28.928Z,9.37
2019-02-07T09:34:16.688Z,9.30
2019-02-07T09:36:47.824Z,9.49
2019-02-07T09:39:35.182Z,9.34
2019-02-07T09:42:10.736Z,9.52
2019-02-07T09:44:58.480Z,9.72
2019-02-07T09:47:44.570Z,9.78
2019-02-07T09:50:21.546Z,9.95
2019-02-07T09:53:04.678Z,9.85
2019-02-07T09:55:45.264Z,9.78
2019-02-07T09:58:26.401Z,9.62
2019-02-07T10:01:13.677Z,9.83
2019-02-07T10:03:44.811Z,9.96
2019-02-07T10:06:18.474Z,10.12
2019-02-07T10:09:05.743Z,10.24
2019-02-07T10:11:43.664Z,10.23
2019-02-07T10:14:26.567Z,9.99
2019-02-07T10:16:58.037Z,10.33
2019-02-07T10:19:45.558Z,10.49
2019-02-07T10:22:31.990Z,10.34
2019-02-07T10:25:21.532Z,10.82
2019-02-07T10:27:55.544Z,11.16
2019-02-07T10:30:40.253Z,11.33
2019-02-07T10:33:20.548Z,11.03
2019-02-07T10:35:51.780Z,10.85
2019-02-07T10:38:33.111Z,11.29
2019-02-07T10:41:08.731Z,11.09
2019-02-07T10:43:51.664Z,11.21
2019-02-07T10:46:37.890Z,11.37
2019-02-07T10:49:22.795Z,11.39
2019-02-07T10:51:53.973Z,11.28
2019-02-07T10:54:29.205Z,11.79
2019-02-07T10:57:00.421Z,12.11
2019-02-07T10:59:34.079Z,12.04
2019-02-07T11:02:22.594Z,12.26
2019-02-07T11:05:12.543Z,12.27
2019-02-07T11:07:48.500Z,11.79
2019-02-07T11:10:36.068Z,11.67
2019-02-07T11:13:07.309Z,12.07
2019-02-07T11:15:54.862Z,12.23
2019-02-07T11:18:28.986Z,12.04
2019-02-07T11:21:03.435Z,12.24
2019-02-07T11:23:43.409Z,12.31
2019-02-07T11:26:23.916Z,12.20
2019-02-07T11:29:06.643Z,12.23
2019-02-07T11:31:46.784Z,12.22
2019-02-07T11:34:21.167Z,12.04
2019-02-07T11:37:08.693Z,11.68
2019-02-07T11:39:42.841Z,11.94
2019-02-07T11:42:14.052Z,12.25
2019-02-07T11:44:50.588Z,12.19
2019-02-07T11:47:24.252Z,12.00
2019-02-07T11:50:01.350Z,12.21
2019-02-07T11:52:33.604Z,12.24
2019-02-07T11:55:10.740Z,12.22
2019-02-07T11:57:42.244Z,12.21
2019-02-07T12:00:33.005Z,12.33
2019-02-07T12:03:19.434Z,12.43
2019-02-07T12:05:56.446Z,12.22
2019-02-07T12:08:30.395Z,12.30
2019-02-07T12:11:01.555Z,11.97
2019-02-07T12:13:35.211Z,11.83
2019-02-07T12:16:25.250Z,12.08
2019-02-07T12:18:59.281Z,12.63
2019-02-07T12:21:36.106Z,12.18
2019-02-07T12:24:19.952Z,11.85
2019-02-07T12:26:57.981Z,11.85
2019-02-07T12:29:47.311Z,12.11
2019-02-07T12:32:16.542Z,12.24
2019-02-07T12:34:47.745Z,12.07
2019-02-07T12:37:19.995Z,11.89
2019-02-07T12:40:07.138Z,11.72
2019-02-07T12:42:44.441Z,11.71
2019-02-07T12:45:25.007Z,12.14
2019-02-07T12:48:14.443Z,12.24
2019-02-07T12:51:01.469Z,12.87
2019-02-07T12:53:44.339Z,12.80
2019-02-07T12:56:17.685Z,12.73
2019-02-07T12:59:04.657Z,12.96
2019-02-07T13:01:37.044Z,13.09
2019-02-07T13:04:09.031Z,12.31
2019-02-07T13:06:56.292Z,12.38
2019-02-07T13:09:34.688Z,11.97
2019-02-07T13:12:14.715Z,11.97
2019-02-07T13:14:46.760Z,11.92
2019-02-07T13:17:18.000Z,12.38
2019-02-07T13:19:52.131Z,12.48
2019-02-07T13:22:23.372Z,12.23
2019-02-07T13:25:00.668Z,11.99
2019-02-07T13:27:34.897Z,12.16
2019-02-07T13:30:27.063Z,12.58
2019-02-07T13:33:09.604Z,12.39
2019-02-07T13:35:40.182Z,12.37
2019-02-07T13:38:17.037Z,12.38
2019-02-07T13:41:06.859Z,12.45
2019-02-07T13:43:38.166Z,12.25
2019-02-07T13:46:28.143Z,12.01
2019-02-07T13:49:15.157Z,12.01
2019-02-07T13:52:04.499Z,11.88
2019-02-07T13:54:36.014Z,12.01
2019-02-07T13:57:23.587Z,12.12
2019-02-07T13:59:54.866Z,12.40
2019-02-07T14:02:30.404Z,12.74
2019-02-07T14:05:07.786Z,12.77
2019-02-07T14:07:39.915Z,12.77
2019-02-07T14:10:30.071Z,12.51
2019-02-07T14:13:17.290Z,12.29
2019-02-07T14:15:46.730Z,12.13
2019-02-07T14:18:24.030Z,12.22
2019-02-07T14:21:10.321Z,12.02
2019-02-07T14:23:44.433Z,11.99
2019-02-07T14:26:31.750Z,11.99
2019-02-07T14:29:12.225Z,11.76
2019-02-07T14:31:59.771Z,11.51
2019-02-07T14:34:36.886Z,11.63
2019-02-07T14:37:24.487Z,11.51
2019-02-07T14:40:11.340Z,11.64
2019-02-07T14:42:51.613Z,11.76
2019-02-07T14:45:28.818Z,11.95
2019-02-07T14:47:58.415Z,12.25
2019-02-07T14:50:28.670Z,12.39
2019-02-07T14:52:58.218Z,12.40
2019-02-07T14:55:27.797Z,12.49
2019-02-07T14:57:57.438Z,12.19
2019-02-07T15:00:27.743Z,12.45
2019-02-07T15:02:57.237Z,12.20
2019-02-07T15:05:26.841Z,11.61
2019-02-07T15:07:56.413Z,11.68
2019-02-07T15:10:25.908Z,11.29
2019-02-07T15:12:55.427Z,11.50
2019-02-07T15:15:25.002Z,10.94
2019-02-07T15:17:54.508Z,11.00
2019-02-07T15:20:26.150Z,11.21
2019-02-07T15:22:55.403Z,10.97
2019-02-07T15:25:25.542Z,11.09
2019-02-07T15:27:55.124Z,11.07
2019-02-07T15:30:24.784Z,10.96
2019-02-07T15:32:54.281Z,10.94
2019-02-07T15:35:34.131Z,10.88
2019-02-07T15:38:03.701Z,10.85
2019-02-07T15:40:33.206Z,10.58
2019-02-07T15:43:02.941Z,10.85
2019-02-07T15:45:32.643Z,10.99
2019-02-07T15:48:02.272Z,10.80
2019-02-07T15:50:37.662Z,10.46
2019-02-07T15:53:04.930Z,10.52
2019-02-07T15:55:34.532Z,10.42
2019-02-07T15:58:04.346Z,10.54
2019-02-07T16:00:42.700Z,10.36
2019-02-07T16:03:29.911Z,10.34
2019-02-07T16:05:59.406Z,10.37
2019-02-07T16:08:29.022Z,10.59
2019-02-07T16:10:58.572Z,10.60
2019-02-07T16:13:28.209Z,10.62
2019-02-07T16:15:57.787Z,10.40
2019-02-07T16:18:27.283Z,10.24
2019-02-07T16:20:56.938Z,10.10
2019-02-07T16:23:27.513Z,10.09
2019-02-07T16:25:57.134Z,10.09
2019-02-07T16:28:26.896Z,10.09
2019-02-07T16:30:56.545Z,10.12
2019-02-07T16:33:26.132Z,10.26
2019-02-07T16:35:55.675Z,10.05
2019-02-07T16:38:25.250Z,10.24
2019-02-07T16:40:54.800Z,10.01
2019-02-07T16:43:25.350Z,10.23
2019-02-07T16:45:54.839Z,10.25
2019-02-07T16:48:24.345Z,10.26
2019-02-07T16:51:00.344Z,10.23
2019-02-07T16:53:25.283Z,10.16
2019-02-07T16:55:54.832Z,9.76
2019-02-07T16:58:24.657Z,9.28
2019-02-07T17:00:54.170Z,8.64
2019-02-07T17:03:23.797Z,8.22
2019-02-07T17:05:53.421Z,8.14
2019-02-07T17:08:22.998Z,7.99
2019-02-07T17:10:52.561Z,8.07
2019-02-07T17:13:22.212Z,7.92
2019-02-07T17:15:51.865Z,7.78
2019-02-07T17:18:21.466Z,7.97
2019-02-07T17:20:51.202Z,7.91
2019-02-07T17:23:20.749Z,8.09
2019-02-07T17:25:52.352Z,7.98
2019-02-07T17:28:21.931Z,7.98
2019-02-07T17:30:51.470Z,8.14
2019-02-07T17:33:21.026Z,7.95
2019-02-07T17:35:51.452Z,7.87
2019-02-07T17:38:21.017Z,7.90
2019-02-07T17:40:50.581Z,7.93
2019-02-07T17:43:20.079Z,7.86
2019-02-07T17:45:49.806Z,7.83
2019-02-07T17:48:19.359Z,7.90
2019-02-07T17:50:48.992Z,7.97
2019-02-07T17:53:18.544Z,8.09
2019-02-07T17:55:48.077Z,8.08
2019-02-07T17:58:17.734Z,8.10
2019-02-07T18:01:02.713Z,8.22
2019-02-07T18:03:32.605Z,8.30
2019-02-07T18:06:02.115Z,8.41
2019-02-07T18:08:32.069Z,8.34
2019-02-07T18:11:01.710Z,8.23
2019-02-07T18:13:31.318Z,8.29
2019-02-07T18:16:00.968Z,8.38
2019-02-07T18:18:30.601Z,8.38
2019-02-07T18:21:00.259Z,8.33
2019-02-07T18:23:30.270Z,8.15
2019-02-07T18:25:59.854Z,8.34
2019-02-07T18:28:29.553Z,8.05
2019-02-07T18:30:59.152Z,8.04
2019-02-07T18:33:28.736Z,8.21
2019-02-07T18:35:58.236Z,8.02
2019-02-07T18:38:28.109Z,7.78
2019-02-07T18:40:57.670Z,7.65
2019-02-07T18:43:27.260Z,7.53
2019-02-07T18:45:56.809Z,7.47
2019-02-07T18:48:26.287Z,7.56
2019-02-07T18:50:55.878Z,7.53
2019-02-07T18:53:25.620Z,7.53
2019-02-07T18:55:56.596Z,7.36
2019-02-07T18:58:26.144Z,7.37
2019-02-07T19:00:55.795Z,7.20
2019-02-07T19:03:25.304Z,7.19
2019-02-07T19:06:07.397Z,7.16
2019-02-07T19:08:36.967Z,7.36
2019-02-07T19:11:06.676Z,7.45
2019-02-07T19:13:36.268Z,7.39
2019-02-07T19:16:06.670Z,7.42
2019-02-07T19:18:36.182Z,7.59
2019-02-07T19:21:05.964Z,7.45
2019-02-07T19:23:35.549Z,7.60
2019-02-07T19:26:05.216Z,7.59
2019-02-07T19:28:34.890Z,7.69
2019-02-07T19:31:06.469Z,7.65
2019-02-07T19:33:36.134Z,7.48
2019-02-07T19:36:05.923Z,7.59
2019-02-07T19:38:35.520Z,7.60
2019-02-07T19:41:05.200Z,7.75
2019-02-07T19:43:54.010Z,7.66
2019-02-07T19:46:24.053Z,7.69
2019-02-07T19:48:53.562Z,7.74
2019-02-07T19:51:23.231Z,7.77
2019-02-07T19:53:52.862Z,7.71
2019-02-07T19:56:22.454Z,7.75
2019-02-07T19:58:51.994Z,7.79
2019-02-07T20:01:21.778Z,7.72
2019-02-07T20:03:51.260Z,7.61
2019-02-07T20:06:20.734Z,7.61
2019-02-07T20:08:50.299Z,7.56
2019-02-07T20:11:19.855Z,7.58
2019-02-07T20:13:49.424Z,7.80
2019-02-07T20:16:19.065Z,7.77
2019-02-07T20:18:48.638Z,7.73
2019-02-07T20:21:18.195Z,7.77
2019-02-07T20:23:47.690Z,7.71
2019-02-07T20:26:17.193Z,7.78
2019-02-07T20:28:46.700Z,7.69
2019-02-07T20:31:16.264Z,7.73
2019-02-07T20:33:46.188Z,7.99
2019-02-07T20:36:15.694Z,7.88
2019-02-07T20:38:45.203Z,7.84
2019-02-07T20:41:14.760Z,7.95
2019-02-07T20:43:44.302Z,7.91
2019-02-07T20:46:13.839Z,7.78
2019-02-07T20:48:43.403Z,7.79
2019-02-07T20:51:13.148Z,7.95
2019-02-07T20:53:42.798Z,7.84
2019-02-07T20:56:12.347Z,7.88
2019-02-07T20:58:41.917Z,8.09
2019-02-07T21:01:11.409Z,7.93
2019-02-07T21:03:40.975Z,7.99
2019-02-07T21:06:10.818Z,7.93
2019-02-07T21:08:40.299Z,7.92
2019-02-07T21:11:09.806Z,7.97
2019-02-07T21:13:39.310Z,8.05
2019-02-07T21:16:08.866Z,8.03
2019-02-07T21:18:38.362Z,7.99
2019-02-07T21:21:09.888Z,8.16
2019-02-07T21:23:39.414Z,8.05
2019-02-07T21:26:08.932Z,8.13
2019-02-07T21:28:38.432Z,7.91
2019-02-07T21:31:07.933Z,7.97
2019-02-07T21:33:37.508Z,8.20
2019-02-07T21:36:07.088Z,8.10
2019-02-07T21:38:36.781Z,7.98
2019-02-07T21:41:06.392Z,8.10
2019-02-07T21:43:35.980Z,8.20
2019-02-07T21:46:06.019Z,8.10
2019-02-07T21:48:35.517Z,8.25
2019-02-07T21:51:05.356Z,8.30
2019-02-07T21:53:34.844Z,8.23
2019-02-07T21:56:04.609Z,8.16
2019-02-07T21:58:34.160Z,8.14
2019-02-07T22:01:03.729Z,8.00
2019-02-07T22:03:33.392Z,7.97
2019-02-07T22:06:02.935Z,7.93
2019-02-07T22:08:32.452Z,8.19
2019-02-07T22:11:02.023Z,8.22
2019-02-07T22:13:31.520Z,7.98
2019-02-07T22:16:01.026Z,8.06
2019-02-07T22:18:30.527Z,7.85
2019-02-07T22:21:00.131Z,7.86
2019-02-07T22:23:29.649Z,8.00
2019-02-07T22:25:59.140Z,8.05
2019-02-07T22:28:28.706Z,7.89
2019-02-07T22:30:58.238Z,8.04
2019-02-07T22:33:27.821Z,7.96
2019-02-07T22:35:57.364Z,8.02
2019-02-07T22:38:26.913Z,7.81
2019-02-07T22:40:56.558Z,8.00
2019-02-07T22:43:26.119Z,7.85
2019-02-07T22:45:55.610Z,7.70
2019-02-07T22:48:25.128Z,7.85
2019-02-07T22:50:55.599Z,7.83
2019-02-07T22:53:25.294Z,7.81
2019-02-07T22:55:54.772Z,7.79
2019-02-07T22:58:24.259Z,7.63
2019-02-07T23:01:07.380Z,7.67
2019-02-07T23:03:37.114Z,7.52
2019-02-07T23:06:07.291Z,7.55
2019-02-07T23:08:36.963Z,7.39
2019-02-07T23:11:08.147Z,7.34
2019-02-07T23:13:38.759Z,7.10
2019-02-07T23:16:09.668Z,7.12
2019-02-07T23:18:39.762Z,6.85
2019-02-07T23:21:09.981Z,6.71
2019-02-07T23:23:39.550Z,6.63
2019-02-07T23:26:09.085Z,6.63
2019-02-07T23:28:38.623Z,6.52
2019-02-07T23:31:08.413Z,6.41
2019-02-07T23:33:38.441Z,6.36
2019-02-07T23:36:08.685Z,6.27
2019-02-07T23:38:38.374Z,6.21
2019-02-07T23:41:08.060Z,6.33
2019-02-07T23:43:37.838Z,6.32
2019-02-07T23:46:07.518Z,6.25
2019-02-07T23:48:37.215Z,6.18
2019-02-07T23:51:07.514Z,6.00
2019-02-07T23:53:37.207Z,6.01
2019-02-07T23:56:06.972Z,6.00
2019-02-07T23:58:36.615Z,5.97
